createdAt,value
2019-06-07T00:00:37.494Z,84.98
2019-06-07T00:01:25.396Z,85.69
2019-06-07T00:02:24.383Z,85.69
2019-06-07T00:03:29.737Z,86.10
2019-06-07T00:04:25.383Z,86.51
2019-06-07T00:05:24.344Z,86.00
2019-06-07T00:06:25.813Z,85.79
2019-06-07T00:07:24.323Z,85.89
2019-06-07T00:08:28.440Z,86.10
2019-06-07T00:09:24.298Z,85.69
2019-06-07T00:10:36.209Z,85.89
2019-06-07T00:11:25.278Z,86.85
2019-06-07T00:12:24.288Z,86.85
2019-06-07T00:13:24.257Z,86.85
2019-06-07T00:14:24.255Z,87.06
2019-06-07T00:15:28.675Z,86.65
2019-06-07T00:16:25.226Z,86.71
2019-06-07T00:17:24.226Z,86.00
2019-06-07T00:18:26.123Z,86.76
2019-06-07T00:19:24.198Z,86.24
2019-06-07T00:20:24.183Z,86.04
2019-06-07T00:22:12.359Z,86.85
2019-06-07T00:22:32.957Z,86.65
2019-06-07T00:23:25.139Z,86.24
2019-06-07T00:24:24.156Z,86.76
2019-06-07T00:25:24.699Z,86.85
2019-06-07T00:26:24.124Z,86.85
2019-06-07T00:27:24.133Z,87.47
2019-06-07T00:28:24.111Z,86.69
2019-06-07T00:29:24.131Z,87.16
2019-06-07T00:30:44.447Z,86.76
2019-06-07T00:31:25.050Z,85.94
2019-06-07T00:32:24.052Z,87.10
2019-06-07T00:33:25.106Z,87.37
2019-06-07T00:34:25.069Z,86.96
2019-06-07T00:35:24.009Z,86.29
2019-06-07T00:36:24.005Z,86.59
2019-06-07T00:37:25.623Z,87.37
2019-06-07T00:38:23.977Z,87.10
2019-06-07T00:39:25.838Z,87.30
2019-06-07T00:40:31.492Z,86.79
2019-06-07T00:41:24.938Z,87.92
2019-06-07T00:42:24.464Z,87.51
2019-06-07T00:43:28.211Z,87.10
2019-06-07T00:44:23.920Z,87.51
2019-06-07T00:45:24.657Z,87.92
2019-06-07T00:46:25.453Z,87.61
2019-06-07T00:47:25.795Z,87.30
2019-06-07T00:48:31.793Z,87.51
2019-06-07T00:49:40.142Z,87.96
2019-06-07T00:50:24.852Z,87.10
2019-06-07T00:51:24.050Z,88.17
2019-06-07T00:53:12.400Z,87.76
2019-06-07T00:53:31.747Z,87.35
2019-06-07T00:54:25.252Z,87.55
2019-06-07T00:55:27.546Z,87.76
2019-06-07T00:56:23.774Z,87.55
2019-06-07T00:57:24.444Z,87.85
2019-06-07T00:58:27.618Z,87.55
2019-06-07T00:59:29.262Z,87.85
2019-06-07T01:00:25.523Z,87.45
2019-06-07T01:01:25.505Z,86.94
2019-06-07T01:02:28.224Z,87.55
2019-06-07T01:03:25.885Z,87.08
2019-06-07T01:04:26.462Z,87.79
2019-06-07T01:05:31.147Z,87.70
2019-06-07T01:06:25.037Z,88.68
2019-06-07T01:07:24.464Z,87.70
2019-06-07T01:08:27.710Z,87.90
2019-06-07T01:09:25.491Z,87.90
2019-06-07T01:10:51.614Z,87.59
2019-06-07T01:11:26.148Z,87.49
2019-06-07T01:12:26.656Z,88.20
2019-06-07T01:13:26.564Z,87.70
2019-06-07T01:14:27.579Z,87.49
2019-06-07T01:15:28.552Z,87.90
2019-06-07T01:16:26.284Z,87.79
2019-06-07T01:17:39.872Z,88.92
2019-06-07T01:18:46.187Z,87.90
2019-06-07T01:19:27.589Z,88.31
2019-06-07T01:20:24.816Z,87.29
2019-06-07T01:21:28.262Z,88.41
2019-06-07T01:22:29.060Z,86.10
2019-06-07T01:24:01.401Z,86.10
2019-06-07T01:24:25.820Z,87.53
2019-06-07T01:25:26.245Z,87.43
2019-06-07T01:26:26.674Z,87.94
2019-06-07T01:27:25.435Z,88.96
2019-06-07T01:28:26.355Z,88.96
2019-06-07T01:29:24.987Z,88.76
2019-06-07T01:30:26.482Z,89.06
2019-06-07T01:31:27.554Z,88.76
2019-06-07T01:32:27.103Z,88.96
2019-06-07T01:33:26.726Z,89.78
2019-06-07T01:34:26.550Z,89.78
2019-06-07T01:35:23.915Z,89.58
2019-06-07T01:36:25.250Z,89.06
2019-06-07T01:37:27.761Z,89.37
2019-06-07T01:38:24.954Z,88.96
2019-06-07T01:39:24.721Z,88.90
2019-06-07T01:40:30.441Z,89.37
2019-06-07T01:41:25.912Z,88.59
2019-06-07T01:42:25.319Z,88.70
2019-06-07T01:43:27.086Z,89.06
2019-06-07T01:44:27.357Z,89.58
2019-06-07T01:45:23.753Z,89.58
2019-06-07T01:46:26.631Z,89.58
2019-06-07T01:47:25.581Z,89.31
2019-06-07T01:48:29.557Z,90.34
2019-06-07T01:49:26.606Z,90.75
2019-06-07T01:50:25.368Z,90.44
2019-06-07T01:51:24.421Z,89.92
2019-06-07T01:52:24.778Z,89.83
2019-06-07T01:53:25.755Z,89.72
2019-06-07T01:55:27.299Z,89.51
2019-06-07T01:56:26.508Z,89.98
2019-06-07T01:57:39.765Z,89.42
2019-06-07T01:58:27.221Z,89.31
2019-06-07T01:59:24.834Z,89.42
2019-06-07T02:00:24.139Z,89.83
2019-06-07T02:01:23.977Z,89.42
2019-06-07T02:02:25.669Z,89.83
2019-06-07T02:03:28.030Z,89.83
2019-06-07T02:04:27.339Z,89.92
2019-06-07T02:05:25.930Z,91.05
2019-06-07T02:06:27.974Z,90.34
2019-06-07T02:07:27.233Z,90.13
2019-06-07T02:08:26.500Z,89.72
2019-06-07T02:09:23.507Z,90.03
2019-06-07T02:10:26.114Z,90.07
2019-06-07T02:11:24.295Z,89.92
2019-06-07T02:12:28.107Z,89.42
2019-06-07T02:13:27.420Z,89.66
2019-06-07T02:14:25.738Z,90.64
2019-06-07T02:15:27.550Z,90.79
2019-06-07T02:16:32.612Z,90.07
2019-06-07T02:17:26.265Z,90.99
2019-06-07T02:18:23.818Z,90.28
2019-06-07T02:19:24.268Z,90.17
2019-06-07T02:20:23.833Z,89.97
2019-06-07T02:21:25.739Z,89.97
2019-06-07T02:22:23.619Z,90.79
2019-06-07T02:23:24.031Z,90.07
2019-06-07T02:24:25.291Z,90.79
2019-06-07T02:25:48.701Z,90.79
2019-06-07T02:26:25.415Z,89.97
2019-06-07T02:27:24.632Z,90.37
2019-06-07T02:28:32.053Z,90.89
2019-06-07T02:29:25.441Z,91.09
2019-06-07T02:30:40.357Z,90.48
2019-06-07T02:31:25.233Z,90.89
2019-06-07T02:32:25.091Z,90.58
2019-06-07T02:33:27.902Z,91.03
2019-06-07T02:34:24.913Z,91.09
2019-06-07T02:35:26.379Z,90.62
2019-06-07T02:36:28.773Z,90.42
2019-06-07T02:37:26.305Z,90.17
2019-06-07T02:38:25.583Z,91.44
2019-06-07T02:39:26.188Z,90.32
2019-06-07T02:40:24.547Z,89.39
2019-06-07T02:41:26.228Z,90.01
2019-06-07T02:42:26.167Z,89.90
2019-06-07T02:43:25.031Z,89.81
2019-06-07T02:44:23.998Z,91.03
2019-06-07T02:45:24.794Z,90.52
2019-06-07T02:46:30.492Z,91.65
2019-06-07T02:47:25.327Z,91.03
2019-06-07T02:48:24.525Z,91.35
2019-06-07T02:49:25.312Z,91.14
2019-06-07T02:50:25.591Z,90.93
2019-06-07T02:51:26.528Z,91.44
2019-06-07T02:52:27.197Z,91.44
2019-06-07T02:53:25.638Z,90.73
2019-06-07T02:54:23.968Z,90.83
2019-06-07T02:55:24.866Z,91.14
2019-06-07T02:56:53.939Z,90.73
2019-06-07T02:57:25.714Z,90.97
2019-06-07T02:58:25.060Z,90.73
2019-06-07T02:59:52.779Z,90.52
2019-06-07T03:01:24.910Z,89.23
2019-06-07T03:02:22.396Z,88.00
2019-06-07T03:03:22.684Z,88.72
2019-06-07T03:04:22.371Z,89.33
2019-06-07T03:05:22.348Z,88.92
2019-06-07T03:06:22.334Z,90.77
2019-06-07T03:07:22.366Z,91.18
2019-06-07T03:08:22.314Z,91.49
2019-06-07T03:09:22.333Z,90.87
2019-06-07T03:10:22.296Z,91.18
2019-06-07T03:11:22.279Z,90.01
2019-06-07T03:12:22.269Z,90.05
2019-06-07T03:13:22.272Z,90.77
2019-06-07T03:14:22.258Z,91.38
2019-06-07T03:15:35.299Z,91.24
2019-06-07T03:16:23.226Z,91.69
2019-06-07T03:17:22.212Z,91.28
2019-06-07T03:18:22.218Z,90.87
2019-06-07T03:19:22.196Z,90.46
2019-06-07T03:20:22.565Z,91.24
2019-06-07T03:21:22.172Z,91.80
2019-06-07T03:22:22.156Z,91.24
2019-06-07T03:23:22.181Z,91.18
2019-06-07T03:24:22.136Z,90.87
2019-06-07T03:25:22.123Z,90.05
2019-06-07T03:26:22.122Z,88.92
2019-06-07T03:27:34.316Z,90.16
2019-06-07T03:28:23.108Z,90.87
2019-06-07T03:29:22.079Z,90.26
2019-06-07T03:30:38.360Z,90.26
2019-06-07T03:31:23.060Z,90.26
2019-06-07T03:32:22.051Z,91.28
2019-06-07T03:33:22.036Z,91.69
2019-06-07T03:34:22.043Z,91.49
2019-06-07T03:35:22.017Z,91.53
2019-06-07T03:36:25.557Z,91.49
2019-06-07T03:37:21.993Z,92.21
2019-06-07T03:38:21.979Z,92.31
2019-06-07T03:39:21.999Z,91.80
2019-06-07T03:40:21.961Z,92.00
2019-06-07T03:41:21.954Z,92.31
2019-06-07T03:42:21.937Z,92.00
2019-06-07T03:43:21.925Z,92.93
2019-06-07T03:44:21.924Z,91.80
2019-06-07T03:45:21.919Z,92.10
2019-06-07T03:46:21.905Z,92.21
2019-06-07T03:47:21.880Z,92.00
2019-06-07T03:48:21.869Z,93.54
2019-06-07T03:49:21.866Z,92.61
2019-06-07T03:50:21.870Z,92.82
2019-06-07T03:51:25.152Z,92.21
2019-06-07T03:52:22.833Z,91.59
2019-06-07T03:53:21.819Z,91.80
2019-06-07T03:54:21.812Z,92.10
2019-06-07T03:55:21.814Z,91.90
2019-06-07T03:56:21.791Z,92.51
2019-06-07T03:57:21.786Z,92.88
2019-06-07T03:58:48.627Z,92.98
2019-06-07T03:59:22.792Z,92.93
2019-06-07T04:00:21.749Z,92.16
2019-06-07T04:01:21.740Z,92.31
2019-06-07T04:02:21.721Z,92.06
2019-06-07T04:03:33.359Z,91.49
2019-06-07T04:04:22.703Z,91.55
2019-06-07T04:05:21.695Z,92.16
2019-06-07T04:06:21.673Z,91.44
2019-06-07T04:07:21.661Z,90.93
2019-06-07T04:08:21.659Z,91.55
2019-06-07T04:09:21.672Z,91.55
2019-06-07T04:10:44.774Z,92.06
2019-06-07T04:11:22.625Z,91.14
2019-06-07T04:12:21.608Z,90.83
2019-06-07T04:13:21.601Z,90.93
2019-06-07T04:14:21.581Z,91.55
2019-06-07T04:15:21.571Z,91.44
2019-06-07T04:16:21.575Z,91.30
2019-06-07T04:17:21.564Z,91.40
2019-06-07T04:18:21.544Z,92.02
2019-06-07T04:19:21.528Z,92.02
2019-06-07T04:20:21.540Z,92.02
2019-06-07T04:21:21.514Z,92.02
2019-06-07T04:22:21.517Z,91.97
2019-06-07T04:23:28.237Z,91.46
2019-06-07T04:24:22.467Z,91.97
2019-06-07T04:25:21.491Z,91.97
2019-06-07T04:26:21.456Z,92.49
2019-06-07T04:27:21.435Z,92.24
2019-06-07T04:28:21.438Z,91.77
2019-06-07T04:30:02.097Z,91.93
2019-06-07T04:30:22.404Z,92.14
2019-06-07T04:31:22.224Z,91.63
2019-06-07T04:32:21.398Z,93.16
2019-06-07T04:33:21.391Z,93.43
2019-06-07T04:34:21.363Z,92.81
2019-06-07T04:35:21.348Z,93.12
2019-06-07T04:36:39.494Z,94.92
2019-06-07T04:37:22.320Z,94.92
2019-06-07T04:38:21.329Z,94.51
2019-06-07T04:39:21.331Z,94.30
2019-06-07T04:40:21.292Z,94.06
2019-06-07T04:41:21.281Z,94.36
2019-06-07T04:42:21.273Z,94.42
2019-06-07T04:43:21.292Z,93.60
2019-06-07T04:44:21.263Z,94.11
2019-06-07T04:45:33.638Z,94.01
2019-06-07T04:46:22.230Z,93.76
2019-06-07T04:47:21.236Z,93.05
2019-06-07T04:48:21.203Z,92.84
2019-06-07T04:49:21.189Z,93.55
2019-06-07T04:50:21.214Z,92.29
2019-06-07T04:51:21.186Z,93.21
2019-06-07T04:52:21.158Z,92.59
2019-06-07T04:53:21.178Z,93.57
2019-06-07T04:54:21.136Z,92.24
2019-06-07T04:55:21.138Z,91.94
2019-06-07T04:56:21.112Z,91.02
2019-06-07T04:57:21.101Z,91.39
2019-06-07T04:58:21.091Z,90.57
2019-06-07T05:00:01.038Z,89.65
2019-06-07T05:00:48.996Z,89.86
2019-06-07T05:01:27.707Z,89.96
2019-06-07T05:02:22.071Z,90.42
2019-06-07T05:03:21.036Z,89.10
2019-06-07T05:04:21.057Z,89.20
2019-06-07T05:05:21.017Z,91.14
2019-06-07T05:06:21.038Z,90.42
2019-06-07T05:07:20.993Z,89.92
2019-06-07T05:08:27.972Z,89.77
2019-06-07T05:09:21.976Z,89.97
2019-06-07T05:10:20.956Z,88.45
2019-06-07T05:11:20.945Z,87.53
2019-06-07T05:12:20.931Z,86.71
2019-06-07T05:13:20.921Z,88.75
2019-06-07T05:14:20.926Z,90.34
2019-06-07T05:15:20.912Z,89.73
2019-06-07T05:16:20.943Z,88.61
2019-06-07T05:17:20.977Z,89.07
2019-06-07T05:18:20.876Z,88.51
2019-06-07T05:19:20.862Z,88.67
2019-06-07T05:20:20.850Z,88.77
2019-06-07T05:21:20.847Z,89.24
2019-06-07T05:22:20.825Z,90.25
2019-06-07T05:24:00.137Z,88.93
2019-06-07T05:24:21.799Z,87.98
2019-06-07T05:25:20.792Z,87.37
2019-06-07T05:26:20.797Z,86.96
2019-06-07T05:27:20.783Z,86.65
2019-06-07T05:28:20.759Z,85.49
2019-06-07T05:29:20.763Z,84.38
2019-06-07T05:30:59.731Z,84.88
2019-06-07T05:31:21.730Z,84.68
2019-06-07T05:32:20.724Z,84.84
2019-06-07T05:33:20.701Z,85.29
2019-06-07T05:34:20.690Z,82.34
2019-06-07T05:35:20.756Z,83.32
2019-06-07T05:36:20.667Z,81.96
2019-06-07T05:37:20.668Z,83.59
2019-06-07T05:38:20.653Z,82.73
2019-06-07T05:39:20.668Z,82.12
2019-06-07T05:40:21.386Z,81.68
2019-06-07T05:41:20.614Z,81.68
2019-06-07T05:42:20.615Z,80.36
2019-06-07T05:43:20.590Z,81.13
2019-06-07T05:44:20.580Z,80.12
2019-06-07T05:45:20.569Z,81.10
2019-06-07T05:46:20.557Z,79.47
2019-06-07T05:47:20.584Z,79.58
2019-06-07T05:48:20.542Z,77.51
2019-06-07T05:49:20.555Z,76.50
2019-06-07T05:50:39.093Z,76.56
2019-06-07T05:51:21.500Z,74.64
2019-06-07T05:52:20.497Z,75.21
2019-06-07T05:53:20.506Z,75.62
2019-06-07T05:54:20.466Z,74.10
2019-06-07T05:55:20.455Z,74.81
2019-06-07T05:56:20.451Z,73.49
2019-06-07T05:57:20.437Z,74.00
2019-06-07T05:58:20.442Z,72.88
2019-06-07T05:59:20.413Z,73.86
2019-06-07T06:00:20.412Z,72.04
2019-06-07T06:01:43.055Z,72.95
2019-06-07T06:02:24.609Z,72.24
2019-06-07T06:03:20.381Z,71.94
2019-06-07T06:04:20.360Z,73.12
2019-06-07T06:05:33.757Z,73.52
2019-06-07T06:06:21.334Z,72.11
2019-06-07T06:07:20.340Z,72.68
2019-06-07T06:08:20.325Z,72.38
2019-06-07T06:09:20.318Z,71.53
2019-06-07T06:10:20.291Z,69.01
2019-06-07T06:11:20.280Z,70.02
2019-06-07T06:12:33.814Z,70.32
2019-06-07T06:13:21.283Z,70.93
2019-06-07T06:14:20.267Z,69.68
2019-06-07T06:15:38.463Z,70.09
2019-06-07T06:16:21.233Z,71.20
2019-06-07T06:17:20.212Z,70.06
2019-06-07T06:18:20.205Z,68.51
2019-06-07T06:19:20.204Z,68.48
2019-06-07T06:20:20.188Z,69.28
2019-06-07T06:21:20.645Z,69.28
2019-06-07T06:22:20.166Z,67.97
2019-06-07T06:23:20.148Z,67.54
2019-06-07T06:24:20.169Z,66.93
2019-06-07T06:25:37.543Z,65.69
2019-06-07T06:26:21.114Z,66.27
2019-06-07T06:28:02.664Z,66.36
2019-06-07T06:28:21.091Z,65.62
2019-06-07T06:29:20.084Z,65.42
2019-06-07T06:30:20.102Z,64.32
2019-06-07T06:31:20.067Z,64.72
2019-06-07T06:33:33.689Z,62.58
2019-06-07T06:34:21.027Z,62.45
2019-06-07T06:35:20.018Z,63.05
2019-06-07T06:36:20.486Z,63.15
2019-06-07T06:37:19.997Z,62.82
2019-06-07T06:38:19.986Z,62.52
2019-06-07T06:39:19.975Z,62.39
2019-06-07T06:40:19.961Z,61.99
2019-06-07T06:41:21.104Z,61.88
2019-06-07T06:42:19.948Z,62.92
2019-06-07T06:43:19.935Z,61.88
2019-06-07T06:44:19.917Z,62.42
2019-06-07T06:45:19.920Z,62.22
2019-06-07T06:46:37.398Z,62.92
2019-06-07T06:47:20.884Z,61.38
2019-06-07T06:48:19.881Z,64.17
2019-06-07T06:49:19.867Z,63.26
2019-06-07T06:50:19.868Z,61.72
2019-06-07T06:51:19.858Z,60.49
2019-06-07T06:52:19.849Z,61.90
2019-06-07T06:53:19.821Z,60.77
2019-06-07T06:54:39.404Z,58.76
2019-06-07T06:55:20.815Z,59.16
2019-06-07T06:56:19.797Z,59.23
2019-06-07T06:57:20.390Z,59.23
2019-06-07T06:58:19.768Z,57.83
2019-06-07T06:59:38.063Z,58.73
2019-06-07T07:00:20.744Z,59.20
2019-06-07T07:01:19.744Z,58.00
2019-06-07T07:02:19.722Z,57.20
2019-06-07T07:04:20.714Z,56.48
2019-06-07T07:05:19.698Z,56.85
2019-06-07T07:06:26.539Z,55.24
2019-06-07T07:07:20.688Z,55.35
2019-06-07T07:08:19.657Z,55.62
2019-06-07T07:09:19.699Z,56.82
2019-06-07T07:10:19.677Z,56.12
2019-06-07T07:11:23.143Z,56.72
2019-06-07T07:12:19.621Z,56.52
2019-06-07T07:13:19.623Z,54.69
2019-06-07T07:14:19.666Z,55.19
2019-06-07T07:15:19.589Z,54.47
2019-06-07T07:16:19.576Z,54.37
2019-06-07T07:17:19.578Z,54.34
2019-06-07T07:18:19.553Z,53.67
2019-06-07T07:19:19.542Z,54.17
2019-06-07T07:20:19.533Z,54.64
2019-06-07T07:21:19.519Z,54.06
2019-06-07T07:22:19.529Z,54.67
2019-06-07T07:23:19.504Z,54.04
2019-06-07T07:24:22.042Z,54.34
2019-06-07T07:25:19.477Z,53.54
2019-06-07T07:26:19.466Z,52.37
2019-06-07T07:27:19.487Z,53.47
2019-06-07T07:28:19.444Z,53.14
2019-06-07T07:29:19.443Z,53.74
2019-06-07T07:30:37.108Z,53.34
2019-06-07T07:31:20.409Z,54.14
2019-06-07T07:32:19.411Z,52.55
2019-06-07T07:33:19.415Z,52.04
2019-06-07T07:34:33.850Z,53.34
2019-06-07T07:35:20.373Z,54.22
2019-06-07T07:36:38.215Z,53.64
2019-06-07T07:37:20.347Z,52.64
2019-06-07T07:38:19.342Z,53.22
2019-06-07T07:39:19.339Z,52.55
2019-06-07T07:40:56.247Z,52.02
2019-06-07T07:41:20.311Z,52.74
2019-06-07T07:42:21.615Z,53.14
2019-06-07T07:43:19.294Z,53.42
2019-06-07T07:44:19.286Z,52.19
2019-06-07T07:45:19.263Z,51.89
2019-06-07T07:46:29.225Z,51.89
2019-06-07T07:47:20.240Z,52.09
2019-06-07T07:48:19.258Z,50.99
2019-06-07T07:49:19.218Z,51.40
2019-06-07T07:50:19.217Z,52.39
2019-06-07T07:51:19.231Z,51.50
2019-06-07T07:52:19.194Z,51.82
2019-06-07T07:53:19.176Z,52.34
2019-06-07T07:54:19.180Z,52.55
2019-06-07T07:55:19.213Z,52.17
2019-06-07T07:56:19.145Z,53.07
2019-06-07T07:57:19.139Z,52.17
2019-06-07T07:58:19.146Z,52.77
2019-06-07T07:59:19.113Z,52.99
2019-06-07T08:00:50.200Z,53.32
2019-06-07T08:01:20.085Z,53.62
2019-06-07T08:02:19.079Z,53.59
2019-06-07T08:03:19.087Z,53.39
2019-06-07T08:04:29.237Z,53.67
2019-06-07T08:05:33.542Z,52.17
2019-06-07T08:06:20.033Z,52.87
2019-06-07T08:07:19.041Z,52.14
2019-06-07T08:08:19.050Z,52.55
2019-06-07T08:09:19.005Z,52.64
2019-06-07T08:10:19.016Z,52.47
2019-06-07T08:11:18.979Z,52.64
2019-06-07T08:12:18.977Z,53.24
2019-06-07T08:13:25.968Z,51.64
2019-06-07T08:14:19.974Z,52.02
2019-06-07T08:15:18.947Z,50.49
2019-06-07T08:16:19.172Z,50.90
2019-06-07T08:17:18.923Z,51.20
2019-06-07T08:18:18.916Z,50.60
2019-06-07T08:19:18.898Z,50.90
2019-06-07T08:20:18.903Z,51.10
2019-06-07T08:21:25.979Z,50.47
2019-06-07T08:22:19.864Z,50.10
2019-06-07T08:23:18.852Z,49.77
2019-06-07T08:24:18.848Z,50.27
2019-06-07T08:25:18.883Z,50.05
2019-06-07T08:26:18.824Z,49.75
2019-06-07T08:27:26.512Z,50.73
2019-06-07T08:28:19.804Z,50.43
2019-06-07T08:29:18.798Z,48.80
2019-06-07T08:30:48.182Z,48.11
2019-06-07T08:31:19.767Z,49.18
2019-06-07T08:32:18.754Z,46.89
2019-06-07T08:33:26.487Z,47.59
2019-06-07T08:34:19.762Z,47.39
2019-06-07T08:36:03.205Z,47.27
2019-06-07T08:36:29.738Z,47.59
2019-06-07T08:37:19.703Z,47.96
2019-06-07T08:38:27.638Z,49.16
2019-06-07T08:39:19.682Z,47.94
2019-06-07T08:40:18.723Z,47.22
2019-06-07T08:41:18.667Z,47.10
2019-06-07T08:42:21.928Z,47.10
2019-06-07T08:43:20.963Z,46.31
2019-06-07T08:44:23.805Z,45.73
2019-06-07T08:45:19.640Z,45.81
2019-06-07T08:46:18.630Z,45.90
2019-06-07T08:47:20.903Z,45.41
2019-06-07T08:48:27.829Z,45.33
2019-06-07T08:49:19.581Z,46.92
2019-06-07T08:50:20.700Z,46.41
2019-06-07T08:51:18.558Z,46.90
2019-06-07T08:52:18.555Z,47.08
2019-06-07T08:53:18.544Z,46.88
2019-06-07T08:54:22.979Z,45.59
2019-06-07T08:55:18.549Z,45.07
2019-06-07T08:56:18.726Z,45.49
2019-06-07T08:57:21.646Z,45.39
2019-06-07T08:58:18.489Z,45.68
2019-06-07T08:59:18.492Z,45.39
2019-06-07T09:00:43.002Z,46.19
2019-06-07T09:01:19.474Z,46.26
2019-06-07T09:02:23.928Z,45.19
2019-06-07T09:03:19.462Z,45.59
2019-06-07T09:04:18.628Z,45.27
2019-06-07T09:05:18.417Z,44.85
2019-06-07T09:07:01.308Z,45.34
2019-06-07T09:07:21.849Z,44.95
2019-06-07T09:08:29.782Z,44.35
2019-06-07T09:09:19.407Z,44.06
2019-06-07T09:10:18.366Z,45.34
2019-06-07T09:11:18.390Z,45.17
2019-06-07T09:12:18.354Z,45.27
2019-06-07T09:13:18.338Z,45.59
2019-06-07T09:14:18.325Z,46.19
2019-06-07T09:15:23.515Z,45.56
2019-06-07T09:16:19.317Z,45.86
2019-06-07T09:17:18.295Z,45.86
2019-06-07T09:18:45.752Z,45.56
2019-06-07T09:19:19.304Z,44.97
2019-06-07T09:20:35.783Z,45.25
2019-06-07T09:21:19.262Z,44.37
2019-06-07T09:22:18.259Z,45.07
2019-06-07T09:23:18.248Z,44.95
2019-06-07T09:24:18.235Z,45.25
2019-06-07T09:25:21.886Z,45.15
2019-06-07T09:26:19.070Z,44.83
2019-06-07T09:27:18.197Z,44.23
2019-06-07T09:28:20.317Z,43.62
2019-06-07T09:29:18.183Z,43.12
2019-06-07T09:30:19.008Z,44.01
2019-06-07T09:31:18.192Z,42.50
2019-06-07T09:32:18.758Z,42.52
2019-06-07T09:33:18.179Z,42.90
2019-06-07T09:34:18.128Z,43.20
2019-06-07T09:35:18.118Z,42.92
2019-06-07T09:36:18.114Z,42.82
2019-06-07T09:38:25.453Z,43.64
2019-06-07T09:39:19.078Z,43.34
2019-06-07T09:40:27.091Z,43.14
2019-06-07T09:41:19.052Z,42.82
2019-06-07T09:42:18.059Z,43.62
2019-06-07T09:44:00.173Z,43.20
2019-06-07T09:44:25.734Z,43.12
2019-06-07T09:45:19.020Z,43.52
2019-06-07T09:46:18.014Z,43.52
2019-06-07T09:47:31.332Z,43.82
2019-06-07T09:49:01.271Z,43.91
2019-06-07T09:49:31.386Z,42.92
2019-06-07T09:50:19.003Z,43.82
2019-06-07T09:51:20.411Z,44.39
2019-06-07T09:52:17.952Z,43.89
2019-06-07T09:53:22.682Z,42.88
2019-06-07T09:55:24.490Z,43.16
2019-06-07T09:56:18.913Z,43.83
2019-06-07T09:57:18.137Z,43.06
2019-06-07T09:58:50.123Z,42.57
2019-06-07T09:59:18.891Z,42.76
2019-06-07T10:00:42.452Z,42.54
2019-06-07T10:01:18.863Z,43.13
2019-06-07T10:02:17.853Z,42.44
2019-06-07T10:03:22.256Z,41.55
2019-06-07T10:04:30.648Z,42.25
2019-06-07T10:05:18.824Z,42.74
2019-06-07T10:06:17.837Z,42.57
2019-06-07T10:07:31.134Z,43.06
2019-06-07T10:09:31.619Z,43.24
2019-06-07T10:11:18.766Z,42.35
2019-06-07T10:12:17.756Z,42.84
2019-06-07T10:13:17.749Z,42.74
2019-06-07T10:14:17.740Z,41.65
2019-06-07T10:15:17.762Z,41.55
2019-06-07T10:16:17.734Z,42.25
2019-06-07T10:17:17.719Z,42.25
2019-06-07T10:18:17.708Z,43.02
2019-06-07T10:19:17.690Z,41.93
2019-06-07T10:20:17.694Z,42.01
2019-06-07T10:21:17.679Z,42.50
2019-06-07T10:22:17.668Z,41.91
2019-06-07T10:23:17.659Z,42.11
2019-06-07T10:24:17.647Z,41.59
2019-06-07T10:25:17.653Z,41.49
2019-06-07T10:26:17.630Z,40.19
2019-06-07T10:27:17.615Z,40.09
2019-06-07T10:28:17.608Z,40.48
2019-06-07T10:29:17.597Z,40.48
2019-06-07T10:30:17.603Z,41.47
2019-06-07T10:31:17.593Z,40.50
2019-06-07T10:32:17.569Z,41.47
2019-06-07T10:33:17.562Z,41.57
2019-06-07T10:34:17.555Z,41.57
2019-06-07T10:35:17.545Z,41.57
2019-06-07T10:36:17.556Z,41.36
2019-06-07T10:37:17.536Z,40.27
2019-06-07T10:38:17.515Z,40.07
2019-06-07T10:39:17.508Z,41.06
2019-06-07T10:40:17.497Z,40.09
2019-06-07T10:41:17.506Z,41.97
2019-06-07T10:42:17.498Z,40.29
2019-06-07T10:43:17.467Z,41.67
2019-06-07T10:44:17.457Z,41.77
2019-06-07T10:45:17.452Z,41.36
2019-06-07T10:46:17.455Z,40.29
2019-06-07T10:47:17.456Z,41.87
2019-06-07T10:48:17.422Z,41.77
2019-06-07T10:49:17.410Z,40.19
2019-06-07T10:50:17.413Z,40.09
2019-06-07T10:51:17.391Z,40.48
2019-06-07T10:52:17.381Z,40.09
2019-06-07T10:53:17.399Z,40.17
2019-06-07T10:54:27.928Z,41.65
2019-06-07T10:55:18.355Z,39.97
2019-06-07T10:56:17.352Z,39.58
2019-06-07T10:57:17.353Z,40.15
2019-06-07T10:58:17.326Z,40.43
2019-06-07T10:59:17.328Z,40.13
2019-06-07T11:00:17.307Z,40.11
2019-06-07T11:01:17.298Z,39.79
2019-06-07T11:02:17.306Z,40.58
2019-06-07T11:03:17.289Z,39.40
2019-06-07T11:04:17.270Z,39.48
2019-06-07T11:05:17.261Z,39.48
2019-06-07T11:06:17.252Z,39.39
2019-06-07T11:07:17.262Z,38.58
2019-06-07T11:08:17.273Z,38.40
2019-06-07T11:09:17.234Z,38.62
2019-06-07T11:10:20.008Z,39.62
2019-06-07T11:11:17.204Z,39.03
2019-06-07T11:12:17.206Z,39.84
2019-06-07T11:13:17.196Z,40.76
2019-06-07T11:14:17.174Z,41.43
2019-06-07T11:15:17.178Z,40.94
2019-06-07T11:16:17.161Z,40.45
2019-06-07T11:17:17.901Z,40.25
2019-06-07T11:18:18.581Z,40.25
2019-06-07T11:19:19.371Z,41.02
2019-06-07T11:20:18.524Z,39.84
2019-06-07T11:21:18.559Z,39.94
2019-06-07T11:22:18.510Z,39.52
2019-06-07T11:23:18.343Z,40.61
2019-06-07T11:24:21.010Z,39.60
2019-06-07T11:25:18.650Z,39.92
2019-06-07T11:26:17.072Z,39.92
2019-06-07T11:27:17.083Z,40.09
2019-06-07T11:28:17.056Z,39.70
2019-06-07T11:29:17.047Z,39.18
2019-06-07T11:30:17.050Z,39.47
2019-06-07T11:31:17.020Z,38.48
2019-06-07T11:32:17.010Z,38.95
2019-06-07T11:33:16.998Z,38.05
2019-06-07T11:34:16.994Z,38.05
2019-06-07T11:35:16.980Z,37.24
2019-06-07T11:36:16.981Z,37.54
2019-06-07T11:37:16.969Z,38.15
2019-06-07T11:38:16.955Z,38.24
2019-06-07T11:39:16.940Z,38.42
2019-06-07T11:40:31.921Z,37.54
2019-06-07T11:41:17.934Z,37.24
2019-06-07T11:42:19.994Z,37.65
2019-06-07T11:43:16.906Z,37.65
2019-06-07T11:44:17.274Z,38.15
2019-06-07T11:45:18.091Z,38.03
2019-06-07T11:46:17.259Z,38.13
2019-06-07T11:47:16.891Z,38.01
2019-06-07T11:48:17.597Z,36.74
2019-06-07T11:49:20.310Z,37.13
2019-06-07T11:50:17.843Z,36.83
2019-06-07T11:51:16.853Z,37.63
2019-06-07T11:52:17.824Z,36.93
2019-06-07T11:53:16.818Z,36.42
2019-06-07T11:54:20.203Z,36.70
2019-06-07T11:55:16.803Z,36.21
2019-06-07T11:56:18.042Z,37.48
2019-06-07T11:57:17.360Z,36.88
2019-06-07T11:58:21.281Z,36.19
2019-06-07T11:59:17.765Z,36.68
2019-06-07T12:00:18.283Z,36.49
2019-06-07T12:01:18.642Z,36.76
2019-06-07T12:02:17.584Z,36.66
2019-06-07T12:03:18.021Z,36.27
2019-06-07T12:04:32.474Z,36.66
2019-06-07T12:05:20.112Z,36.25
2019-06-07T12:06:18.001Z,35.39
2019-06-07T12:07:17.689Z,36.86
2019-06-07T12:08:16.691Z,35.80
2019-06-07T12:09:16.968Z,36.88
2019-06-07T12:10:20.510Z,36.90
2019-06-07T12:11:18.500Z,36.49
2019-06-07T12:12:16.659Z,35.60
2019-06-07T12:13:17.463Z,36.40
2019-06-07T12:14:16.883Z,36.42
2019-06-07T12:15:17.275Z,36.80
2019-06-07T12:16:17.391Z,37.48
2019-06-07T12:17:17.621Z,37.09
2019-06-07T12:18:17.359Z,36.82
2019-06-07T12:19:17.663Z,36.99
2019-06-07T12:20:17.480Z,36.78
2019-06-07T12:21:17.994Z,36.68
2019-06-07T12:22:17.838Z,38.35
2019-06-07T12:23:17.996Z,35.80
2019-06-07T12:24:16.540Z,37.35
2019-06-07T12:25:21.595Z,36.37
2019-06-07T12:26:18.598Z,35.49
2019-06-07T12:27:16.757Z,35.96
2019-06-07T12:28:16.855Z,36.55
2019-06-07T12:29:17.165Z,36.35
2019-06-07T12:30:22.579Z,35.17
2019-06-07T12:31:17.475Z,36.35
2019-06-07T12:32:17.501Z,36.06
2019-06-07T12:33:17.698Z,35.88
2019-06-07T12:34:17.491Z,36.74
2019-06-07T12:35:17.748Z,36.94
2019-06-07T12:36:17.707Z,36.45
2019-06-07T12:37:19.347Z,36.16
2019-06-07T12:38:19.009Z,35.39
2019-06-07T12:39:16.387Z,36.66
2019-06-07T12:40:26.435Z,36.08
2019-06-07T12:41:18.238Z,35.35
2019-06-07T12:42:16.632Z,34.96
2019-06-07T12:43:16.731Z,35.55
2019-06-07T12:44:16.644Z,35.66
2019-06-07T12:45:32.360Z,36.65
2019-06-07T12:46:23.092Z,36.45
2019-06-07T12:47:17.317Z,36.45
2019-06-07T12:48:20.482Z,35.47
2019-06-07T12:49:17.304Z,35.47
2019-06-07T12:50:17.426Z,34.78
2019-06-07T12:51:17.196Z,35.96
2019-06-07T12:52:19.150Z,35.66
2019-06-07T12:53:17.786Z,35.57
2019-06-07T12:54:17.540Z,35.35
2019-06-07T12:55:18.072Z,35.55
2019-06-07T12:56:17.649Z,35.34
2019-06-07T12:57:16.309Z,35.34
2019-06-07T12:58:16.211Z,36.32
2019-06-07T12:59:16.214Z,35.34
2019-06-07T13:00:16.220Z,35.13